Time;durP1;ratioP1;P1;durP2;ratioP2;P2;SDS_P1;SDS_P2;PMS_P1;PMS_P2;Temp;Humidity;BMP_temperature;BMP_pressure;BME280_temperature;BME280_humidity;BME280_pressure;Samples;Min_cycle;Max_cycle;Signal;HPM_P1;HPM_P2
2022/09/22 05:07:59;;;;;;;4.00;3.00;;;;;;;;;;5050505;28;20353;-92
2022/09/22 05:10:35;;;;;;;3.35;3.03;;;;;;;;;;5046765;28;20402;-91
2022/09/22 05:13:12;;;;;;;3.22;2.92;;;;;;;;;;5062157;28;20786;-91
2022/09/22 05:15:39;;;;;;;2.72;2.53;;;;;;;;;;5071595;28;20728;-91
2022/09/22 05:18:05;;;;;;;4.80;3.00;;;;;;;;;;5060252;28;20413;-91
2022/09/22 05:20:31;;;;;;;3.22;2.92;;;;;;;;;;5072594;28;20437;-93
2022/09/22 05:23:00;;;;;;;3.63;2.90;;;;;;;;;;5058870;28;20371;-91
2022/09/22 05:25:26;;;;;;;3.15;2.75;;;;;;;;;;5060736;28;20381;-91
2022/09/22 05:27:52;;;;;;;4.15;2.75;;;;;;;;;;5052511;28;20373;-91
2022/09/22 05:30:20;;;;;;;3.17;2.50;;;;;;;;;;5052475;28;20405;-92
2022/09/22 05:32:46;;;;;;;3.15;2.60;;;;;;;;;;5025275;28;20407;-92
2022/09/22 05:35:17;;;;;;;3.20;2.80;;;;;;;;;;5060366;28;20483;-92
2022/09/22 05:37:43;;;;;;;3.55;3.10;;;;;;;;;;5043419;28;20873;-91
2022/09/22 05:40:10;;;;;;;4.13;2.90;;;;;;;;;;5062937;28;20384;-92
2022/09/22 05:42:43;;;;;;;5.35;3.20;;;;;;;;;;5063101;28;20425;-92
2022/09/22 05:45:10;;;;;;;3.50;3.20;;;;;;;;;;4973917;28;20424;-92
2022/09/22 05:47:36;;;;;;;5.95;3.20;;;;;;;;;;5022778;28;20377;-91
2022/09/22 05:50:02;;;;;;;4.87;3.20;;;;;;;;;;5070035;28;20377;-91
2022/09/22 05:52:40;;;;;;;3.53;3.22;;;;;;;;;;4973844;28;20388;-91
2022/09/22 05:55:06;;;;;;;3.50;3.20;;;;;;;;;;5045793;28;20377;-92
2022/09/22 05:57:33;;;;;;;3.75;3.40;;;;;;;;;;5055342;28;20431;-91
2022/09/22 05:59:59;;;;;;;5.28;4.07;;;;;;;;;;5025328;28;20868;-91
2022/09/22 06:02:34;;;;;;;5.82;4.40;;;;;;;;;;5067698;28;20405;-92
2022/09/22 06:05:09;;;;;;;5.72;5.00;;;;;;;;;;5070070;28;20364;-92
2022/09/22 06:07:40;;;;;;;5.43;4.88;;;;;;;;;;5048950;28;20374;-92
2022/09/22 06:10:07;;;;;;;4.43;4.13;;;;;;;;;;5052061;28;20399;-91
2022/09/22 06:12:35;;;;;;;4.55;3.53;;;;;;;;;;5062247;28;20382;-91
2022/09/22 06:15:01;;;;;;;4.45;3.70;;;;;;;;;;5062305;28;20377;-91
2022/09/22 06:17:27;;;;;;;3.73;3.43;;;;;;;;;;5069179;28;20885;-91
2022/09/22 06:19:53;;;;;;;3.65;3.35;;;;;;;;;;5065981;28;20390;-93
2022/09/22 06:22:19;;;;;;;3.58;3.10;;;;;;;;;;5060892;28;20422;-92
2022/09/22 06:24:47;;;;;;;3.40;3.10;;;;;;;;;;5066247;28;20422;-92
2022/09/22 06:27:13;;;;;;;3.38;3.08;;;;;;;;;;5048160;28;20376;-91
2022/09/22 06:29:40;;;;;;;5.00;3.60;;;;;;;;;;5065363;28;20400;-88
2022/09/22 06:32:07;;;;;;;4.10;3.60;;;;;;;;;;5070270;28;20395;-88
2022/09/22 06:34:33;;;;;;;4.88;3.65;;;;;;;;;;5055983;28;20484;-89
2022/09/22 06:37:08;;;;;;;4.87;3.90;;;;;;;;;;5050630;28;20387;-90
2022/09/22 06:39:36;;;;;;;4.22;3.80;;;;;;;;;;5048491;28;20377;-92
2022/09/22 06:42:02;;;;;;;5.68;3.95;;;;;;;;;;5046338;28;20405;-89
2022/09/22 06:44:30;;;;;;;5.57;4.00;;;;;;;;;;5053456;28;20377;-89
2022/09/22 06:46:56;;;;;;;5.38;4.07;;;;;;;;;;5011556;28;20377;-88
2022/09/22 06:49:24;;;;;;;5.97;4.63;;;;;;;;;;5053356;28;20881;-91
2022/09/22 06:51:50;;;;;;;4.45;4.15;;;;;;;;;;4972367;28;20392;-85
2022/09/22 06:54:17;;;;;;;4.30;3.90;;;;;;;;;;5042445;28;20387;-88
2022/09/22 06:56:43;;;;;;;5.80;4.03;;;;;;;;;;5053732;28;20383;-89
2022/09/22 06:59:11;;;;;;;4.90;3.97;;;;;;;;;;5053728;28;20412;-89
2022/09/22 07:01:38;;;;;;;4.32;3.92;;;;;;;;;;5014073;28;20771;-88
2022/09/22 07:04:04;;;;;;;4.53;4.20;;;;;;;;;;5052467;28;20401;-88
2022/09/22 07:06:30;;;;;;;4.57;4.17;;;;;;;;;;5052462;28;20386;-89
2022/09/22 07:08:56;;;;;;;5.25;4.05;;;;;;;;;;5052490;28;20892;-89
2022/09/22 07:11:22;;;;;;;5.00;4.22;;;;;;;;;;5049937;28;20390;-92
2022/09/22 07:13:50;;;;;;;5.13;4.63;;;;;;;;;;5056717;28;21016;-90
2022/09/22 07:16:16;;;;;;;6.57;4.60;;;;;;;;;;5056414;28;20401;-87
2022/09/22 07:18:43;;;;;;;4.50;4.10;;;;;;;;;;5052689;28;20389;-88
2022/09/22 07:21:14;;;;;;;4.63;4.22;;;;;;;;;;5049541;28;20775;-86
2022/09/22 07:23:43;;;;;;;4.93;4.50;;;;;;;;;;5052699;28;20871;-87
2022/09/22 07:26:13;;;;;;;4.72;4.32;;;;;;;;;;5017393;28;20378;-87
2022/09/22 07:28:39;;;;;;;4.55;4.15;;;;;;;;;;4971738;28;20385;-87
2022/09/22 07:31:07;;;;;;;4.70;4.20;;;;;;;;;;4970211;28;20462;-88
2022/09/22 07:33:34;;;;;;;4.70;4.20;;;;;;;;;;4990444;28;20385;-89
2022/09/22 07:36:01;;;;;;;5.43;4.45;;;;;;;;;;5037339;28;20866;-89
2022/09/22 07:38:35;;;;;;;5.10;4.70;;;;;;;;;;5055596;28;20450;-87
2022/09/22 07:41:02;;;;;;;4.68;4.35;;;;;;;;;;5055350;28;20463;-89
2022/09/22 07:43:29;;;;;;;5.03;4.53;;;;;;;;;;5053055;28;20374;-88
2022/09/22 07:45:56;;;;;;;14.20;4.53;;;;;;;;;;5055737;28;20404;-88
2022/09/22 07:51:23;;;;;;;4.63;4.22;;;;;;;;;;5039805;28;20457;-91
2022/09/22 07:53:53;;;;;;;4.78;4.38;;;;;;;;;;5010272;28;20381;-89
2022/09/22 07:56:27;;;;;;;4.75;4.22;;;;;;;;;;5051361;28;20465;-90
2022/09/22 07:58:54;;;;;;;5.13;4.38;;;;;;;;;;4971262;28;20391;-89
2022/09/22 08:01:25;;;;;;;5.28;4.35;;;;;;;;;;4974854;28;20432;-90
2022/09/22 08:03:51;;;;;;;4.43;4.00;;;;;;;;;;5043156;28;20746;-91
2022/09/22 08:06:18;;;;;;;4.70;4.30;;;;;;;;;;5058125;28;20377;-91
2022/09/22 08:08:46;;;;;;;4.30;3.90;;;;;;;;;;5062067;28;20859;-91
2022/09/22 08:11:14;;;;;;;4.43;3.67;;;;;;;;;;5059837;28;20389;-91
2022/09/22 08:13:41;;;;;;;5.90;4.05;;;;;;;;;;4971022;28;20422;-89
2022/09/22 08:16:09;;;;;;;4.50;3.70;;;;;;;;;;5011529;28;20377;-90
2022/09/22 08:18:35;;;;;;;3.80;3.40;;;;;;;;;;5052417;28;20381;-91
2022/09/22 08:21:03;;;;;;;3.50;3.20;;;;;;;;;;4990861;28;20407;-91
2022/09/22 08:23:30;;;;;;;4.05;3.63;;;;;;;;;;5052530;28;20386;-92
2022/09/22 08:25:56;;;;;;;4.33;3.93;;;;;;;;;;5066494;28;20408;-90
2022/09/22 08:28:22;;;;;;;3.95;3.42;;;;;;;;;;5063484;28;20380;-89
2022/09/22 08:30:48;;;;;;;3.50;3.20;;;;;;;;;;5055561;28;20439;-88
2022/09/22 08:33:14;;;;;;;6.22;3.92;;;;;;;;;;5056691;28;20466;-88
2022/09/22 08:35:50;;;;;;;4.40;3.97;;;;;;;;;;5052799;28;20741;-90
2022/09/22 08:38:17;;;;;;;4.43;4.03;;;;;;;;;;4970897;28;20384;-86
2022/09/22 08:40:45;;;;;;;5.05;4.60;;;;;;;;;;5009384;28;20429;-84
2022/09/22 08:43:11;;;;;;;4.67;4.30;;;;;;;;;;5053816;28;20405;-85
2022/09/22 08:45:39;;;;;;;5.35;3.90;;;;;;;;;;5053219;28;20743;-86
2022/09/22 08:53:45;;;;;;;4.32;3.92;;;;;;;;;;5043324;28;20426;-87
2022/09/22 08:56:17;;;;;;;5.47;4.60;;;;;;;;;;5050951;28;20432;-87
2022/09/22 08:58:48;;;;;;;4.82;4.32;;;;;;;;;;5061172;28;20435;-86
2022/09/22 09:01:41;;;;;;;4.72;4.25;;;;;;;;;;5051533;28;20411;-86
2022/09/22 09:04:13;;;;;;;5.80;3.97;;;;;;;;;;5028879;28;20885;-86
2022/09/22 09:06:58;;;;;;;4.78;4.38;;;;;;;;;;5017802;28;20381;-86
2022/09/22 09:09:42;;;;;;;4.60;4.20;;;;;;;;;;5051039;28;20405;-87
2022/09/22 09:12:17;;;;;;;6.63;4.55;;;;;;;;;;5052045;28;20385;-86
2022/09/22 09:14:46;;;;;;;5.20;4.68;;;;;;;;;;5053886;28;20463;-87
2022/09/22 09:17:21;;;;;;;14.68;4.97;;;;;;;;;;5045506;28;20390;-87
2022/09/22 09:19:49;;;;;;;4.80;4.18;;;;;;;;;;5035585;28;20383;-86
2022/09/22 09:22:24;;;;;;;8.70;4.10;;;;;;;;;;5035491;28;20919;-86
2022/09/22 09:24:57;;;;;;;5.68;4.00;;;;;;;;;;5035795;28;20857;-86
2022/09/22 09:27:24;;;;;;;4.38;3.97;;;;;;;;;;5037265;28;20411;-85
2022/09/22 09:30:01;;;;;;;4.78;4.00;;;;;;;;;;5035127;28;20419;-85
2022/09/22 09:32:42;;;;;;;5.80;4.15;;;;;;;;;;5034739;28;20797;-85
2022/09/22 09:35:13;;;;;;;3.97;3.58;;;;;;;;;;5034711;28;20424;-87
2022/09/22 09:37:39;;;;;;;4.18;3.70;;;;;;;;;;5034176;28;20392;-86
2022/09/22 09:40:07;;;;;;;5.03;3.78;;;;;;;;;;5037503;28;20390;-86
2022/09/22 09:42:35;;;;;;;4.25;3.50;;;;;;;;;;5037329;28;20410;-86
2022/09/22 09:45:02;;;;;;;5.82;3.60;;;;;;;;;;5035569;28;20375;-87
2022/09/22 09:47:35;;;;;;;4.53;3.33;;;;;;;;;;5035342;28;20445;-87
2022/09/22 09:50:02;;;;;;;6.25;3.38;;;;;;;;;;5035104;28;20932;-86
2022/09/22 09:52:28;;;;;;;3.60;3.10;;;;;;;;;;5034867;28;20388;-87
2022/09/22 09:54:54;;;;;;;4.25;3.50;;;;;;;;;;5035592;28;20383;-87
2022/09/22 09:57:21;;;;;;;4.68;3.90;;;;;;;;;;5035748;28;20387;-86
2022/09/22 10:02:34;;;;;;;7.25;3.45;;;;;;;;;;5035926;28;20441;-86
2022/09/22 10:05:15;;;;;;;4.20;3.20;;;;;;;;;;5037351;28;20439;-84
2022/09/22 10:07:48;;;;;;;3.60;3.25;;;;;;;;;;5035172;28;20441;-87
2022/09/22 10:10:34;;;;;;;4.65;3.28;;;;;;;;;;5041957;28;20387;-86
2022/09/22 10:13:03;;;;;;;4.90;3.83;;;;;;;;;;5035895;28;20467;-86
2022/09/22 10:15:29;;;;;;;5.68;3.17;;;;;;;;;;5039125;28;20379;-87
2022/09/22 10:17:55;;;;;;;3.50;3.20;;;;;;;;;;4934506;28;20842;-86
2022/09/22 10:20:25;;;;;;;4.00;3.60;;;;;;;;;;4947852;28;20398;-86
2022/09/22 10:22:51;;;;;;;3.70;3.17;;;;;;;;;;4971292;28;20461;-85
2022/09/22 10:25:27;;;;;;;4.13;2.80;;;;;;;;;;4972835;28;20385;-86
2022/09/22 10:28:11;;;;;;;3.47;2.63;;;;;;;;;;4972651;28;20443;-86
2022/09/22 10:30:38;;;;;;;10.60;2.65;;;;;;;;;;4972428;28;20384;-87
2022/09/22 10:33:19;;;;;;;4.28;2.38;;;;;;;;;;4972538;28;20938;-85
2022/09/22 10:35:54;;;;;;;6.17;2.60;;;;;;;;;;4972452;28;20471;-87
2022/09/22 10:38:22;;;;;;;2.28;2.08;;;;;;;;;;4972650;28;20461;-87
2022/09/22 10:41:06;;;;;;;3.78;2.28;;;;;;;;;;4972454;28;20775;-87
2022/09/22 10:43:51;;;;;;;2.97;1.88;;;;;;;;;;4972378;28;20385;-85
2022/09/22 10:46:31;;;;;;;2.53;2.00;;;;;;;;;;4972528;28;20381;-86
2022/09/22 10:49:20;;;;;;;3.55;2.05;;;;;;;;;;4972316;28;20888;-85
2022/09/22 10:52:04;;;;;;;4.55;2.03;;;;;;;;;;4972381;28;20516;-86
2022/09/22 10:54:40;;;;;;;3.47;2.42;;;;;;;;;;4972763;28;20407;-87
2022/09/22 10:57:11;;;;;;;2.60;2.10;;;;;;;;;;5047753;28;20551;-86
2022/09/22 10:59:59;;;;;;;2.50;1.98;;;;;;;;;;5053744;28;20378;-86
2022/09/22 11:02:30;;;;;;;4.35;2.03;;;;;;;;;;4952785;28;20980;-86
2022/09/22 11:05:02;;;;;;;4.47;1.98;;;;;;;;;;4972229;28;20815;-87
2022/09/22 11:13:13;;;;;;;2.80;2.03;;;;;;;;;;4987418;28;20441;-89
2022/09/22 11:15:39;;;;;;;3.67;1.77;;;;;;;;;;4971883;28;20462;-88
2022/09/22 11:18:25;;;;;;;2.85;2.05;;;;;;;;;;4972054;28;20397;-87
2022/09/22 11:21:10;;;;;;;8.82;2.15;;;;;;;;;;4971653;28;20446;-88
2022/09/22 11:23:44;;;;;;;6.60;2.20;;;;;;;;;;4971744;28;20468;-86
2022/09/22 11:26:10;;;;;;;3.03;2.00;;;;;;;;;;4971976;28;20731;-89
2022/09/22 11:28:55;;;;;;;4.05;1.70;;;;;;;;;;4971717;28;20392;-87
2022/09/22 11:31:23;;;;;;;2.85;1.60;;;;;;;;;;4971538;28;20392;-89
2022/09/22 11:34:09;;;;;;;1.90;1.65;;;;;;;;;;5011885;28;20383;-87
2022/09/22 11:36:44;;;;;;;3.10;1.70;;;;;;;;;;5041230;28;20377;-88
2022/09/22 11:39:23;;;;;;;4.38;2.10;;;;;;;;;;5052800;28;20431;-86
2022/09/22 11:41:57;;;;;;;2.15;1.60;;;;;;;;;;5027688;28;20488;-89
2022/09/22 11:44:43;;;;;;;3.10;1.63;;;;;;;;;;5054324;28;20374;-86
2022/09/22 11:47:16;;;;;;;2.75;1.75;;;;;;;;;;4971487;28;20384;-86
2022/09/22 11:49:51;;;;;;;5.38;1.92;;;;;;;;;;5012157;28;20402;-89
2022/09/22 11:52:29;;;;;;;2.60;1.50;;;;;;;;;;5054855;28;20405;-88
2022/09/22 11:54:55;;;;;;;2.05;1.30;;;;;;;;;;5052750;28;20435;-86
2022/09/22 11:57:23;;;;;;;2.10;1.38;;;;;;;;;;5045476;28;20414;-87
2022/09/22 11:59:52;;;;;;;2.28;1.52;;;;;;;;;;5050539;28;20720;-87
2022/09/22 12:02:27;;;;;;;2.53;1.57;;;;;;;;;;5052420;28;20413;-87
2022/09/22 12:05:25;;;;;;;2.70;1.42;;;;;;;;;;4971193;28;20403;-87
2022/09/22 12:08:03;;;;;;;3.75;1.30;;;;;;;;;;5046660;28;20388;-87
2022/09/22 12:10:33;;;;;;;2.53;1.20;;;;;;;;;;5067986;28;20866;-88
2022/09/22 12:13:01;;;;;;;3.42;1.73;;;;;;;;;;4971030;28;20404;-85
2022/09/22 12:15:28;;;;;;;2.60;1.50;;;;;;;;;;5012434;28;20453;-86
2022/09/22 12:18:01;;;;;;;1.83;1.35;;;;;;;;;;4971272;28;20783;-88
2022/09/22 12:20:39;;;;;;;2.20;1.20;;;;;;;;;;4971118;28;20817;-87
2022/09/22 12:23:14;;;;;;;2.60;1.42;;;;;;;;;;4993937;28;20881;-86
2022/09/22 12:25:43;;;;;;;2.03;1.40;;;;;;;;;;5033810;28;20896;-87
2022/09/22 12:28:21;;;;;;;2.10;1.20;;;;;;;;;;4971020;28;20381;-88
2022/09/22 12:30:59;;;;;;;1.60;1.25;;;;;;;;;;4976317;28;20381;-87
2022/09/22 12:33:26;;;;;;;2.30;1.20;;;;;;;;;;4934380;28;20407;-87
2022/09/22 12:35:54;;;;;;;1.40;1.20;;;;;;;;;;5033234;28;20397;-86
2022/09/22 12:38:21;;;;;;;2.72;1.20;;;;;;;;;;5040567;28;20362;-86
2022/09/22 12:40:48;;;;;;;2.25;1.30;;;;;;;;;;5047066;28;20383;-88
2022/09/22 12:43:21;;;;;;;2.22;1.40;;;;;;;;;;4937432;28;20401;-85
2022/09/22 12:45:48;;;;;;;2.88;1.30;;;;;;;;;;4969747;28;20873;-83
2022/09/22 12:48:16;;;;;;;3.65;1.42;;;;;;;;;;4970847;28;20407;-86
2022/09/22 12:50:43;;;;;;;2.30;1.30;;;;;;;;;;5000648;28;20796;-86
2022/09/22 12:53:11;;;;;;;2.08;0.90;;;;;;;;;;5032741;28;20394;-87
2022/09/22 12:55:37;;;;;;;2.25;1.30;;;;;;;;;;5044280;28;20397;-86
2022/09/22 12:58:18;;;;;;;4.80;1.70;;;;;;;;;;5052225;28;20384;-86
2022/09/22 13:00:44;;;;;;;4.80;1.52;;;;;;;;;;5051646;28;20413;-85
2022/09/22 13:03:26;;;;;;;3.22;1.40;;;;;;;;;;5051555;28;20388;-85
2022/09/22 13:06:03;;;;;;;3.22;1.10;;;;;;;;;;4970445;28;20388;-85
2022/09/22 13:08:32;;;;;;;3.03;1.10;;;;;;;;;;4970301;28;20389;-85
2022/09/22 13:11:05;;;;;;;1.77;1.30;;;;;;;;;;4970282;28;20420;-84
2022/09/22 13:13:31;;;;;;;1.60;1.00;;;;;;;;;;4970575;28;20414;-86
2022/09/22 13:15:58;;;;;;;3.85;1.38;;;;;;;;;;4970402;28;20857;-85
2022/09/22 13:18:33;;;;;;;4.32;1.80;;;;;;;;;;4970265;28;20896;-85
2022/09/22 13:21:11;;;;;;;3.90;1.73;;;;;;;;;;4952707;28;20820;-85
2022/09/22 13:23:53;;;;;;;2.50;1.20;;;;;;;;;;4970247;28;20731;-85
2022/09/22 13:26:20;;;;;;;3.03;1.17;;;;;;;;;;4970232;28;20421;-84
2022/09/22 13:29:05;;;;;;;4.07;1.37;;;;;;;;;;4970235;28;20526;-85
2022/09/22 13:31:51;;;;;;;2.10;1.30;;;;;;;;;;5050161;28;20390;-85
2022/09/22 13:34:26;;;;;;;2.20;1.25;;;;;;;;;;4969978;28;20888;-84
2022/09/22 13:36:57;;;;;;;1.80;1.20;;;;;;;;;;4970065;28;20488;-85
2022/09/22 13:39:24;;;;;;;2.37;1.20;;;;;;;;;;4970038;28;20437;-85
2022/09/22 13:41:51;;;;;;;2.00;1.50;;;;;;;;;;4969912;28;20411;-85
2022/09/22 13:44:21;;;;;;;3.83;1.80;;;;;;;;;;4969932;28;20392;-85
2022/09/22 13:46:47;;;;;;;2.13;1.50;;;;;;;;;;4969950;28;20434;-85
2022/09/22 13:49:17;;;;;;;2.35;1.63;;;;;;;;;;4969892;28;20397;-85
2022/09/22 13:51:47;;;;;;;4.88;1.20;;;;;;;;;;4969925;28;20491;-85
2022/09/22 13:54:18;;;;;;;2.60;1.38;;;;;;;;;;4952582;28;20453;-85
2022/09/22 13:56:44;;;;;;;2.40;1.23;;;;;;;;;;5013585;28;20723;-85
2022/09/22 13:59:11;;;;;;;3.90;1.50;;;;;;;;;;4955616;28;20773;-86
2022/09/22 14:01:45;;;;;;;1.90;1.50;;;;;;;;;;4973092;28;20426;-85
2022/09/22 14:04:25;;;;;;;2.28;1.23;;;;;;;;;;4994465;28;20409;-84
2022/09/22 14:06:57;;;;;;;2.53;1.33;;;;;;;;;;5012009;28;20414;-84
2022/09/22 14:09:23;;;;;;;2.10;1.10;;;;;;;;;;4973015;28;20391;-84
2022/09/22 14:11:49;;;;;;;2.83;1.50;;;;;;;;;;5051990;28;20433;-83
2022/09/22 14:14:21;;;;;;;4.47;1.50;;;;;;;;;;5051914;28;20477;-85
2022/09/22 14:16:49;;;;;;;2.10;1.40;;;;;;;;;;5047148;28;20476;-85
2022/09/22 14:19:15;;;;;;;2.85;1.60;;;;;;;;;;4972731;28;20400;-84
2022/09/22 14:21:49;;;;;;;3.22;1.52;;;;;;;;;;4972682;28;20473;-84
2022/09/22 14:24:15;;;;;;;3.47;1.30;;;;;;;;;;4973039;28;20413;-85
2022/09/22 14:26:45;;;;;;;2.40;1.40;;;;;;;;;;4972781;28;20434;-84
2022/09/22 14:29:20;;;;;;;2.38;1.35;;;;;;;;;;4987755;28;20377;-85
2022/09/22 14:31:48;;;;;;;1.90;1.00;;;;;;;;;;5051876;28;20401;-84
2022/09/22 14:34:17;;;;;;;2.17;1.20;;;;;;;;;;5055980;28;20417;-86
2022/09/22 14:36:44;;;;;;;2.50;1.20;;;;;;;;;;5053765;28;20377;-85
2022/09/22 14:39:14;;;;;;;3.60;1.30;;;;;;;;;;5054559;28;20881;-85
2022/09/22 14:41:49;;;;;;;2.93;1.20;;;;;;;;;;5054382;28;20437;-85
2022/09/22 14:44:34;;;;;;;2.33;1.20;;;;;;;;;;5053545;28;20397;-84
2022/09/22 14:47:07;;;;;;;2.50;1.10;;;;;;;;;;5052972;28;20422;-84
2022/09/22 14:49:39;;;;;;;2.05;1.13;;;;;;;;;;5054592;28;20920;-85
2022/09/22 14:52:06;;;;;;;2.47;1.13;;;;;;;;;;5049194;28;20417;-84
2022/09/22 14:54:34;;;;;;;2.10;1.30;;;;;;;;;;5052839;28;20385;-85
2022/09/22 14:57:02;;;;;;;3.42;1.10;;;;;;;;;;5053313;28;20377;-85
2022/09/22 15:02:32;;;;;;;3.22;1.20;;;;;;;;;;4951972;28;20799;-86
2022/09/22 15:05:02;;;;;;;2.55;1.10;;;;;;;;;;4971927;28;20442;-85
2022/09/22 15:07:29;;;;;;;2.05;1.10;;;;;;;;;;5024848;28;20427;-86
2022/09/22 15:09:57;;;;;;;2.10;1.20;;;;;;;;;;5056426;28;20476;-86
2022/09/22 15:12:41;;;;;;;3.20;0.90;;;;;;;;;;5053277;28;20393;-84
2022/09/22 15:15:18;;;;;;;1.40;0.90;;;;;;;;;;4972304;28;20435;-85
2022/09/22 15:20:40;;;;;;;2.60;1.40;;;;;;;;;;5047194;28;20867;-87
2022/09/22 15:23:09;;;;;;;2.20;1.15;;;;;;;;;;4973847;28;20471;-86
2022/09/22 15:25:35;;;;;;;2.65;1.10;;;;;;;;;;5041980;28;20391;-83
2022/09/22 15:28:10;;;;;;;2.75;0.93;;;;;;;;;;5035640;28;20851;-84
2022/09/22 15:30:36;;;;;;;2.13;1.00;;;;;;;;;;5026633;28;20726;-85
2022/09/22 15:33:02;;;;;;;2.03;1.00;;;;;;;;;;5036629;28;20399;-86
2022/09/22 15:35:32;;;;;;;4.40;1.40;;;;;;;;;;5034846;28;20867;-85
2022/09/22 15:37:58;;;;;;;3.83;1.25;;;;;;;;;;4971949;28;20397;-84
2022/09/22 15:40:24;;;;;;;3.20;1.20;;;;;;;;;;4971295;28;20404;-85
2022/09/22 15:42:51;;;;;;;1.67;0.90;;;;;;;;;;4971416;28;20417;-86
2022/09/22 15:45:20;;;;;;;2.83;1.00;;;;;;;;;;5019625;28;20477;-87
2022/09/22 15:47:48;;;;;;;3.50;0.95;;;;;;;;;;5053342;28;20384;-86
2022/09/22 15:50:16;;;;;;;2.43;1.00;;;;;;;;;;5051914;28;20377;-86
2022/09/22 15:52:43;;;;;;;2.17;1.02;;;;;;;;;;5051126;28;20373;-83
2022/09/22 15:55:12;;;;;;;1.58;0.70;;;;;;;;;;5049123;28;20381;-86
2022/09/22 15:57:39;;;;;;;1.42;0.90;;;;;;;;;;5050860;28;20399;-85
2022/09/22 16:00:13;;;;;;;1.17;0.80;;;;;;;;;;5051258;28;20385;-86
2022/09/22 16:02:39;;;;;;;2.80;0.90;;;;;;;;;;5052184;28;20487;-84
2022/09/22 16:05:06;;;;;;;1.05;0.60;;;;;;;;;;5052339;28;20418;-91
2022/09/22 16:07:36;;;;;;;1.33;0.70;;;;;;;;;;4971117;28;20401;-88
2022/09/22 16:10:02;;;;;;;1.23;0.70;;;;;;;;;;4984053;28;20393;-86
2022/09/22 16:12:28;;;;;;;1.40;0.77;;;;;;;;;;5050771;28;20412;-86
2022/09/22 16:14:55;;;;;;;1.02;0.60;;;;;;;;;;5050414;28;20417;-87
2022/09/22 16:17:23;;;;;;;1.00;0.60;;;;;;;;;;5054927;28;20380;-87
2022/09/22 16:19:49;;;;;;;1.80;0.70;;;;;;;;;;5060317;28;20377;-88
2022/09/22 16:22:16;;;;;;;1.13;0.73;;;;;;;;;;5050149;28;20487;-87
2022/09/22 16:24:42;;;;;;;1.20;0.60;;;;;;;;;;5060485;28;20373;-87
2022/09/22 16:27:09;;;;;;;0.93;0.60;;;;;;;;;;5016213;28;20380;-88
2022/09/22 16:29:36;;;;;;;1.10;0.50;;;;;;;;;;4996696;28;20377;-87
2022/09/22 16:32:02;;;;;;;1.10;0.50;;;;;;;;;;5036881;28;20442;-88
2022/09/22 16:34:29;;;;;;;1.20;0.40;;;;;;;;;;5017068;28;20417;-87
2022/09/22 16:36:55;;;;;;;2.03;0.60;;;;;;;;;;5040751;28;20381;-87
2022/09/22 16:39:22;;;;;;;1.60;0.70;;;;;;;;;;5016170;28;20878;-87
2022/09/22 16:41:48;;;;;;;1.33;0.60;;;;;;;;;;5040600;28;20504;-87
2022/09/22 16:44:14;;;;;;;0.88;0.60;;;;;;;;;;5030847;28;20505;-87
2022/09/22 16:46:41;;;;;;;1.00;0.60;;;;;;;;;;5033270;28;20387;-89
2022/09/22 16:49:11;;;;;;;2.28;0.52;;;;;;;;;;5029025;28;20397;-88
2022/09/22 16:51:41;;;;;;;1.10;0.60;;;;;;;;;;5019217;28;20874;-87
2022/09/22 16:54:12;;;;;;;3.63;3.33;;;;;;;;;;5052036;28;20386;-86
2022/09/22 16:56:38;;;;;;;0.98;0.60;;;;;;;;;;5010543;28;20385;-87
2022/09/22 16:59:05;;;;;;;1.23;0.60;;;;;;;;;;5052269;28;20382;-87
2022/09/22 17:01:35;;;;;;;1.45;0.68;;;;;;;;;;5051826;28;20405;-85
2022/09/22 17:04:01;;;;;;;1.50;0.40;;;;;;;;;;5051868;28;20390;-85
2022/09/22 17:06:27;;;;;;;1.15;0.45;;;;;;;;;;5052132;28;20775;-85
2022/09/22 17:08:55;;;;;;;2.10;0.50;;;;;;;;;;4970633;28;20801;-86
2022/09/22 17:11:23;;;;;;;4.30;0.80;;;;;;;;;;4970541;28;20451;-86
2022/09/22 17:13:49;;;;;;;3.50;3.10;;;;;;;;;;5032003;28;20484;-87
2022/09/22 17:16:21;;;;;;;2.15;1.75;;;;;;;;;;5053627;28;20417;-88
2022/09/22 17:18:49;;;;;;;1.98;1.40;;;;;;;;;;5049809;28;20480;-89
2022/09/22 17:21:19;;;;;;;0.90;0.67;;;;;;;;;;5032601;28;20418;-86
2022/09/22 17:23:45;;;;;;;3.15;0.77;;;;;;;;;;5033175;28;20790;-89
2022/09/22 17:26:11;;;;;;;1.02;0.60;;;;;;;;;;4947269;28;20438;-87
2022/09/22 17:28:38;;;;;;;0.83;0.67;;;;;;;;;;5050114;28;20472;-88
2022/09/22 17:31:07;;;;;;;0.90;0.60;;;;;;;;;;5048283;28;20416;-87
2022/09/22 17:33:45;;;;;;;0.85;0.57;;;;;;;;;;5051866;28;20377;-88
2022/09/22 17:36:12;;;;;;;1.90;0.80;;;;;;;;;;5054244;28;20770;-88
2022/09/22 17:38:39;;;;;;;1.30;1.00;;;;;;;;;;4993356;28;20407;-85
2022/09/22 17:41:08;;;;;;;2.30;1.27;;;;;;;;;;5052876;28;20785;-88
2022/09/22 17:43:44;;;;;;;1.65;0.80;;;;;;;;;;5054186;28;20835;-86
2022/09/22 17:46:12;;;;;;;1.27;1.00;;;;;;;;;;5055001;28;20361;-87
2022/09/22 17:57:04;;;;;;;1.05;0.88;;;;;;;;;;5027736;28;20389;-86
2022/09/22 17:59:30;;;;;;;1.30;0.80;;;;;;;;;;5054917;28;20382;-86
2022/09/22 18:01:56;;;;;;;1.80;0.63;;;;;;;;;;4972758;28;20411;-87
2022/09/22 18:04:22;;;;;;;1.60;0.90;;;;;;;;;;4973388;28;20388;-85
2022/09/22 18:06:48;;;;;;;2.85;1.10;;;;;;;;;;5055888;28;20434;-84
2022/09/22 18:09:14;;;;;;;3.30;0.80;;;;;;;;;;5054417;28;20409;-86
2022/09/22 18:11:42;;;;;;;2.60;0.85;;;;;;;;;;5051877;28;20435;-85
2022/09/22 18:14:09;;;;;;;2.20;1.20;;;;;;;;;;5054292;28;20388;-84
2022/09/22 18:16:35;;;;;;;2.30;2.10;;;;;;;;;;4972859;28;20388;-85
2022/09/22 18:19:04;;;;;;;3.67;2.63;;;;;;;;;;4972623;28;20404;-85
2022/09/22 18:21:30;;;;;;;3.45;1.98;;;;;;;;;;4972638;28;20491;-82
2022/09/22 18:23:56;;;;;;;1.90;1.77;;;;;;;;;;4972622;28;20427;-84
2022/09/22 18:26:22;;;;;;;3.03;1.42;;;;;;;;;;5031818;28;20421;-83
2022/09/22 18:28:51;;;;;;;1.50;1.10;;;;;;;;;;5039647;28;20379;-81
2022/09/22 18:31:17;;;;;;;1.30;0.70;;;;;;;;;;5043415;28;20390;-83
2022/09/22 18:33:43;;;;;;;3.90;0.95;;;;;;;;;;5023405;28;20399;-82
2022/09/22 18:36:10;;;;;;;1.50;0.90;;;;;;;;;;5035006;28;20433;-84
2022/09/22 18:38:37;;;;;;;2.42;1.10;;;;;;;;;;5032068;28;20401;-84
2022/09/22 18:41:03;;;;;;;2.03;1.10;;;;;;;;;;5052714;28;20786;-84
2022/09/22 18:43:29;;;;;;;2.70;1.15;;;;;;;;;;5052301;28;20874;-85
2022/09/22 18:45:55;;;;;;;1.98;1.10;;;;;;;;;;5050906;28;20385;-85
2022/09/22 18:48:23;;;;;;;2.08;1.33;;;;;;;;;;5053043;28;20374;-84
2022/09/22 18:50:49;;;;;;;2.47;1.25;;;;;;;;;;5049692;28;20431;-84
2022/09/22 18:53:16;;;;;;;2.65;1.20;;;;;;;;;;5052268;28;20441;-84
2022/09/22 18:55:43;;;;;;;2.42;1.40;;;;;;;;;;5056182;28;20389;-85
2022/09/22 18:58:09;;;;;;;5.38;1.48;;;;;;;;;;5051565;28;20388;-84
2022/09/22 19:00:35;;;;;;;1.77;1.53;;;;;;;;;;5051175;28;20430;-84
2022/09/22 19:03:01;;;;;;;4.55;2.05;;;;;;;;;;5051382;28;20446;-84
2022/09/22 19:05:30;;;;;;;6.10;4.28;;;;;;;;;;5051290;28;20405;-84
2022/09/22 19:07:59;;;;;;;7.80;5.75;;;;;;;;;;5052300;28;20456;-85
2022/09/22 19:10:26;;;;;;;10.95;7.22;;;;;;;;;;5052270;28;20386;-84
2022/09/22 19:12:55;;;;;;;10.38;7.60;;;;;;;;;;5051871;28;20459;-83
2022/09/22 19:15:22;;;;;;;10.55;6.38;;;;;;;;;;5051732;28;20515;-84
2022/09/22 19:17:51;;;;;;;6.90;5.30;;;;;;;;;;5033729;28;20393;-84
2022/09/22 19:20:22;;;;;;;6.07;4.28;;;;;;;;;;5051880;28;20468;-84
2022/09/22 19:22:49;;;;;;;4.60;3.53;;;;;;;;;;5047858;28;20412;-84
2022/09/22 19:25:15;;;;;;;4.57;3.63;;;;;;;;;;5049304;28;20440;-84
2022/09/22 19:27:42;;;;;;;5.65;3.40;;;;;;;;;;5033565;28;20928;-84
2022/09/22 19:30:09;;;;;;;4.50;3.00;;;;;;;;;;5051860;28;20385;-84
2022/09/22 19:32:35;;;;;;;3.90;2.58;;;;;;;;;;5052349;28;20392;-87
2022/09/22 19:35:01;;;;;;;2.67;2.22;;;;;;;;;;5052088;28;20384;-89
2022/09/22 19:37:28;;;;;;;3.10;2.40;;;;;;;;;;5052398;28;20468;-88
2022/09/22 19:39:54;;;;;;;3.50;2.40;;;;;;;;;;5052437;28;20382;-88
2022/09/22 19:42:20;;;;;;;3.28;2.35;;;;;;;;;;5048742;28;20445;-88
2022/09/22 19:44:46;;;;;;;3.40;2.30;;;;;;;;;;5050756;28;20404;-88
2022/09/22 19:47:12;;;;;;;4.22;2.40;;;;;;;;;;5051438;28;20382;-89
2022/09/22 19:49:41;;;;;;;3.23;2.80;;;;;;;;;;5052158;28;20788;-88
2022/09/22 19:52:08;;;;;;;4.10;3.42;;;;;;;;;;5052337;28;20802;-89
2022/09/22 19:54:34;;;;;;;6.10;5.00;;;;;;;;;;5051763;28;20377;-87
2022/09/22 19:57:00;;;;;;;5.10;4.63;;;;;;;;;;5051147;28;20492;-89
2022/09/22 19:59:26;;;;;;;3.92;3.53;;;;;;;;;;5051931;28;20381;-89
2022/09/22 20:01:53;;;;;;;5.32;2.78;;;;;;;;;;5051843;28;20409;-89
2022/09/22 20:04:21;;;;;;;4.53;2.83;;;;;;;;;;5051460;28;20393;-88
2022/09/22 20:06:47;;;;;;;3.47;2.40;;;;;;;;;;5049769;28;20464;-89
2022/09/22 20:09:14;;;;;;;2.58;2.30;;;;;;;;;;5050410;28;20855;-88
2022/09/22 20:11:44;;;;;;;4.07;1.90;;;;;;;;;;5049304;28;20408;-86
2022/09/22 20:14:21;;;;;;;2.65;1.90;;;;;;;;;;5034872;28;20412;-87
2022/09/22 20:16:58;;;;;;;2.10;1.70;;;;;;;;;;5036446;28;20473;-87
2022/09/22 20:19:25;;;;;;;2.60;1.90;;;;;;;;;;5038596;28;20834;-88
2022/09/22 20:21:53;;;;;;;3.40;2.05;;;;;;;;;;5033326;28;20413;-87
2022/09/22 20:24:20;;;;;;;2.42;1.80;;;;;;;;;;5037204;28;20399;-87
2022/09/22 20:26:46;;;;;;;2.85;1.88;;;;;;;;;;5034414;28;20394;-87
2022/09/22 20:29:13;;;;;;;2.05;1.80;;;;;;;;;;5041008;28;20481;-87
2022/09/22 20:31:40;;;;;;;1.90;1.70;;;;;;;;;;5037503;28;20476;-87
2022/09/22 20:34:06;;;;;;;2.60;1.92;;;;;;;;;;5030089;28;20401;-87
2022/09/22 20:36:33;;;;;;;2.05;1.80;;;;;;;;;;5038937;28;20407;-88